createdAt,value
2017-12-09T00:01:00.356Z,1.80
2017-12-09T00:03:26.338Z,1.80
2017-12-09T00:05:52.296Z,1.70
2017-12-09T00:08:18.287Z,1.60
2017-12-09T00:10:44.225Z,1.60
2017-12-09T00:13:10.917Z,1.60
2017-12-09T00:15:36.907Z,1.60
2017-12-09T00:18:02.896Z,1.60
2017-12-09T00:20:28.857Z,1.60
2017-12-09T00:22:54.866Z,1.60
2017-12-09T00:25:20.837Z,1.60
2017-12-09T00:27:46.812Z,1.50
2017-12-09T00:30:12.768Z,1.50
2017-12-09T00:32:38.732Z,1.30
2017-12-09T00:35:04.709Z,1.20
2017-12-09T00:37:31.424Z,1.20
2017-12-09T00:39:57.369Z,1.20
2017-12-09T00:42:23.372Z,1.20
2017-12-09T00:44:49.353Z,1.10
2017-12-09T00:47:15.409Z,1.10
2017-12-09T00:49:42.093Z,1.10
2017-12-09T00:52:08.105Z,1.00
2017-12-09T00:54:34.108Z,0.90
2017-12-09T00:57:00.045Z,0.80
2017-12-09T00:59:26.060Z,0.90
2017-12-09T01:01:52.032Z,0.90
2017-12-09T01:04:18.752Z,0.90
2017-12-09T01:06:44.724Z,0.80
2017-12-09T01:09:11.409Z,0.90
2017-12-09T01:11:37.412Z,0.90
2017-12-09T01:14:04.160Z,0.90
2017-12-09T01:16:43.330Z,0.90
2017-12-09T01:19:09.280Z,0.90
2017-12-09T01:21:35.253Z,0.90
2017-12-09T01:24:01.233Z,0.90
2017-12-09T01:26:27.216Z,0.90
2017-12-09T01:28:53.201Z,0.80
2017-12-09T01:31:19.885Z,0.80
2017-12-09T01:33:45.836Z,0.80
2017-12-09T01:36:11.806Z,0.70
2017-12-09T01:38:38.540Z,0.50
2017-12-09T01:41:04.563Z,0.50
2017-12-09T01:43:30.538Z,0.50
2017-12-09T01:45:57.244Z,0.20
2017-12-09T01:48:23.248Z,0.20
2017-12-09T01:50:49.201Z,0.00
2017-12-09T01:53:15.152Z,0.00
2017-12-09T01:55:41.132Z,0.00
2017-12-09T01:58:07.809Z,0.00
2017-12-09T02:00:33.810Z,0.00
2017-12-09T02:02:59.752Z,0.10
2017-12-09T02:05:25.738Z,0.00
2017-12-09T02:07:51.676Z,0.00
2017-12-09T02:10:17.662Z,0.00
2017-12-09T02:12:43.620Z,0.00
2017-12-09T02:15:09.556Z,0.00
2017-12-09T02:17:35.505Z,0.00
2017-12-09T02:20:01.492Z,0.00
2017-12-09T02:22:27.445Z,0.00
2017-12-09T02:24:54.148Z,0.10
2017-12-09T02:27:20.146Z,0.00
2017-12-09T02:29:46.132Z,0.00
2017-12-09T02:32:12.081Z,0.00
2017-12-09T02:34:38.025Z,0.00
2017-12-09T02:37:04.092Z,0.00
2017-12-09T02:39:30.052Z,0.10
2017-12-09T02:41:56.021Z,0.20
2017-12-09T02:44:22.753Z,0.20
2017-12-09T02:46:48.743Z,0.20
2017-12-09T02:49:14.692Z,0.20
2017-12-09T02:51:40.669Z,0.20
2017-12-09T02:54:06.620Z,0.30
2017-12-09T02:56:32.609Z,0.30
2017-12-09T02:58:58.540Z,0.30
2017-12-09T03:01:24.501Z,0.40
2017-12-09T03:03:50.465Z,0.40
2017-12-09T03:06:16.446Z,0.50
2017-12-09T03:08:42.446Z,0.60
2017-12-09T03:11:08.393Z,0.80
2017-12-09T03:13:35.108Z,0.90
2017-12-09T03:16:01.078Z,0.90
2017-12-09T03:18:27.757Z,1.00
2017-12-09T03:20:53.758Z,1.00
2017-12-09T03:23:20.473Z,1.10
2017-12-09T03:25:46.466Z,1.10
2017-12-09T03:28:13.285Z,1.30
2017-12-09T03:30:39.238Z,1.30
2017-12-09T03:33:05.269Z,1.40
2017-12-09T03:35:31.244Z,1.40
2017-12-09T03:37:57.185Z,1.40
2017-12-09T03:40:23.169Z,1.40
2017-12-09T03:42:49.113Z,1.50
2017-12-09T03:45:15.078Z,1.60
2017-12-09T03:47:41.033Z,1.80
2017-12-09T03:50:07.034Z,1.80
2017-12-09T03:52:33.742Z,1.90
2017-12-09T03:54:59.685Z,1.80
2017-12-09T03:57:25.655Z,1.90
2017-12-09T03:59:52.403Z,1.90
2017-12-09T04:02:19.145Z,2.00
2017-12-09T04:04:45.119Z,2.00
2017-12-09T04:07:11.095Z,2.00
2017-12-09T04:09:37.826Z,2.00
2017-12-09T04:12:03.810Z,2.00
2017-12-09T04:14:29.862Z,2.10
2017-12-09T04:16:56.550Z,2.30
2017-12-09T04:19:22.491Z,2.30
2017-12-09T04:21:48.495Z,2.20
2017-12-09T04:24:15.189Z,2.20
2017-12-09T04:26:41.213Z,2.20
2017-12-09T04:29:07.173Z,2.10
2017-12-09T04:31:33.916Z,2.20
2017-12-09T04:33:59.886Z,2.20
2017-12-09T04:36:25.856Z,2.20
2017-12-09T04:38:51.850Z,2.10
2017-12-09T04:41:17.806Z,2.10
2017-12-09T04:43:44.506Z,1.90
2017-12-09T04:46:10.478Z,1.90
2017-12-09T04:48:36.450Z,1.90
2017-12-09T04:51:02.438Z,1.80
2017-12-09T04:53:28.449Z,1.70
2017-12-09T04:55:54.429Z,1.60
2017-12-09T04:58:20.385Z,1.60
2017-12-09T05:00:47.181Z,1.60
2017-12-09T05:03:13.117Z,1.50
2017-12-09T05:05:39.084Z,1.30
2017-12-09T05:08:12.309Z,1.40
2017-12-09T05:10:39.029Z,1.50
2017-12-09T05:13:05.073Z,1.50
2017-12-09T05:15:31.008Z,1.50
2017-12-09T05:17:57.003Z,1.50
2017-12-09T05:20:22.948Z,1.50
2017-12-09T05:22:48.881Z,1.50
2017-12-09T05:25:14.848Z,1.30
2017-12-09T05:27:40.805Z,1.30
2017-12-09T05:30:07.538Z,1.50
2017-12-09T05:32:33.572Z,1.40
2017-12-09T05:34:59.512Z,1.40
2017-12-09T05:37:25.498Z,1.40
2017-12-09T05:39:51.492Z,1.40
2017-12-09T05:42:17.447Z,1.40
2017-12-09T05:44:44.175Z,1.40
2017-12-09T05:47:10.141Z,1.40
2017-12-09T05:49:36.145Z,1.30
2017-12-09T05:52:02.111Z,1.40
2017-12-09T05:54:28.101Z,1.30
2017-12-09T05:56:54.053Z,1.50
2017-12-09T05:59:20.045Z,1.40
2017-12-09T06:01:45.993Z,1.50
2017-12-09T06:04:12.017Z,1.50
2017-12-09T06:06:38.001Z,1.40
2017-12-09T06:09:03.981Z,1.40
2017-12-09T06:11:30.003Z,1.50
2017-12-09T06:13:55.944Z,1.50
2017-12-09T06:16:21.970Z,1.40
2017-12-09T06:18:48.648Z,1.60
2017-12-09T06:21:14.626Z,1.60
2017-12-09T06:23:40.713Z,1.50
2017-12-09T06:26:06.649Z,1.50
2017-12-09T06:28:32.644Z,1.50
2017-12-09T06:30:58.637Z,1.40
2017-12-09T06:33:24.608Z,1.40
2017-12-09T06:35:50.564Z,1.40
2017-12-09T06:38:17.277Z,1.40
2017-12-09T06:40:43.249Z,1.40
2017-12-09T06:43:09.977Z,1.30
2017-12-09T06:45:35.934Z,1.30
2017-12-09T06:48:02.727Z,1.30
2017-12-09T06:50:28.709Z,1.30
2017-12-09T06:52:54.656Z,1.40
2017-12-09T06:55:21.412Z,1.30
2017-12-09T06:57:47.396Z,1.30
2017-12-09T07:00:13.351Z,1.40
2017-12-09T07:02:39.344Z,1.50
2017-12-09T07:05:05.346Z,1.40
2017-12-09T07:07:31.298Z,1.40
2017-12-09T07:09:57.970Z,1.30
2017-12-09T07:12:23.942Z,1.20
2017-12-09T07:14:49.917Z,1.20
2017-12-09T07:17:16.673Z,1.20
2017-12-09T07:19:43.354Z,1.20
2017-12-09T07:22:09.325Z,1.20
2017-12-09T07:24:35.323Z,1.30
2017-12-09T07:27:01.309Z,1.20
2017-12-09T07:29:27.253Z,1.20
2017-12-09T07:31:53.261Z,1.30
2017-12-09T07:34:19.196Z,1.20
2017-12-09T07:36:45.169Z,1.20
2017-12-09T07:39:11.893Z,1.20
2017-12-09T07:41:37.838Z,1.20
2017-12-09T07:44:03.845Z,1.20
2017-12-09T07:46:29.798Z,1.20
2017-12-09T07:48:55.750Z,1.30
2017-12-09T07:51:21.717Z,1.30
2017-12-09T07:53:48.419Z,1.40
2017-12-09T07:56:14.450Z,1.40
2017-12-09T07:58:40.470Z,1.40
2017-12-09T08:01:06.424Z,1.40
2017-12-09T08:03:32.418Z,1.40
2017-12-09T08:05:58.405Z,1.40
2017-12-09T08:08:24.351Z,1.50
2017-12-09T08:10:50.326Z,1.50
2017-12-09T08:13:17.007Z,1.60
2017-12-09T08:15:43.025Z,1.60
2017-12-09T08:18:09.001Z,1.60
2017-12-09T08:20:35.707Z,1.80
2017-12-09T08:23:01.685Z,1.80
2017-12-09T08:25:27.706Z,1.90
2017-12-09T08:27:53.662Z,1.90
2017-12-09T08:30:19.646Z,1.90
2017-12-09T08:32:46.337Z,1.90
2017-12-09T08:35:12.331Z,1.90
2017-12-09T08:37:39.059Z,2.00
2017-12-09T08:40:05.013Z,2.00
2017-12-09T08:42:31.738Z,2.30
2017-12-09T08:44:57.715Z,2.30
2017-12-09T08:47:24.406Z,2.60
2017-12-09T08:49:50.402Z,2.50
2017-12-09T08:52:17.089Z,2.70
2017-12-09T08:54:43.077Z,2.70
2017-12-09T08:57:09.791Z,2.90
2017-12-09T08:59:35.773Z,2.90
2017-12-09T09:02:02.513Z,3.20
2017-12-09T09:04:28.505Z,3.10
2017-12-09T09:06:54.485Z,3.20
2017-12-09T09:09:20.480Z,3.30
2017-12-09T09:11:46.421Z,3.20
2017-12-09T09:14:12.596Z,3.10
2017-12-09T09:16:38.608Z,3.10
2017-12-09T09:19:04.597Z,3.00
2017-12-09T09:21:30.574Z,3.00
2017-12-09T09:23:56.569Z,2.90
2017-12-09T09:26:22.534Z,2.70
2017-12-09T09:28:48.545Z,2.80
2017-12-09T09:31:14.533Z,2.80
2017-12-09T09:33:40.553Z,2.90
2017-12-09T09:36:06.525Z,3.00
2017-12-09T09:38:33.294Z,3.10
2017-12-09T09:40:59.289Z,3.10
2017-12-09T09:43:25.262Z,3.20
2017-12-09T09:45:51.991Z,3.30
2017-12-09T09:48:18.786Z,3.40
2017-12-09T09:50:44.761Z,3.40
2017-12-09T09:53:10.816Z,3.40
2017-12-09T09:55:36.818Z,3.30
2017-12-09T09:58:02.799Z,3.30
2017-12-09T10:00:29.525Z,3.00
2017-12-09T10:02:55.522Z,3.00
2017-12-09T10:05:21.565Z,2.80
2017-12-09T10:07:47.570Z,2.30
2017-12-09T10:10:14.269Z,2.00
2017-12-09T10:12:40.284Z,1.90
2017-12-09T10:15:06.252Z,1.80
2017-12-09T10:17:32.280Z,1.90
2017-12-09T10:19:59.021Z,2.20
2017-12-09T10:22:25.017Z,2.20
2017-12-09T10:24:51.062Z,2.50
2017-12-09T10:27:17.805Z,2.40
2017-12-09T10:29:44.498Z,2.20
2017-12-09T10:32:10.461Z,2.20
2017-12-09T10:34:36.451Z,2.20
2017-12-09T10:37:02.443Z,2.10
2017-12-09T10:39:28.406Z,2.20
2017-12-09T10:41:55.141Z,2.20
2017-12-09T10:44:21.113Z,2.20
2017-12-09T10:46:47.092Z,2.00
2017-12-09T10:49:13.033Z,2.10
2017-12-09T10:51:39.010Z,2.20
2017-12-09T10:54:04.968Z,2.20
2017-12-09T10:56:30.954Z,2.10
2017-12-09T10:58:56.919Z,2.20
2017-12-09T11:01:22.877Z,1.90
2017-12-09T11:03:48.870Z,1.80
2017-12-09T11:06:15.569Z,1.70
2017-12-09T11:08:41.598Z,1.70
2017-12-09T11:11:07.593Z,1.90
2017-12-09T11:13:33.573Z,1.90
2017-12-09T11:15:59.557Z,1.80
2017-12-09T11:18:25.561Z,1.90
2017-12-09T11:20:52.249Z,2.10
2017-12-09T11:23:18.230Z,2.00
2017-12-09T11:25:44.218Z,2.10
2017-12-09T11:28:10.257Z,2.00
2017-12-09T11:30:36.246Z,1.90
2017-12-09T11:33:02.238Z,1.90
2017-12-09T11:35:28.921Z,1.90
2017-12-09T11:37:54.888Z,1.90
2017-12-09T11:40:20.854Z,1.90
2017-12-09T11:42:46.794Z,1.90
2017-12-09T11:45:12.821Z,1.80
2017-12-09T11:47:38.780Z,1.80
2017-12-09T11:50:04.749Z,1.70
2017-12-09T11:52:30.727Z,1.80
2017-12-09T11:54:56.747Z,1.80
2017-12-09T11:57:22.706Z,2.00
2017-12-09T11:59:48.690Z,1.90
2017-12-09T12:02:14.650Z,1.80
2017-12-09T12:04:40.612Z,1.90
2017-12-09T12:07:06.559Z,1.90
2017-12-09T12:09:32.603Z,2.10
2017-12-09T12:11:59.394Z,2.20
2017-12-09T12:14:25.412Z,2.10
2017-12-09T12:16:52.116Z,2.40
2017-12-09T12:19:18.097Z,2.40
2017-12-09T12:21:44.798Z,2.10
2017-12-09T12:24:10.875Z,2.10
2017-12-09T12:26:36.808Z,2.00
2017-12-09T12:29:02.833Z,2.00
2017-12-09T12:31:28.816Z,2.30
2017-12-09T12:33:54.786Z,2.30
2017-12-09T12:36:20.762Z,2.30
2017-12-09T12:38:47.447Z,1.90
2017-12-09T12:41:13.470Z,1.90
2017-12-09T12:43:39.425Z,1.80
2017-12-09T12:46:05.417Z,1.70
2017-12-09T12:48:31.353Z,1.80
2017-12-09T12:50:58.067Z,1.50
2017-12-09T12:53:24.050Z,1.50
2017-12-09T12:55:50.762Z,1.40
2017-12-09T12:58:16.725Z,1.30
2017-12-09T13:00:42.708Z,1.30
2017-12-09T13:03:08.645Z,1.40
2017-12-09T13:05:34.581Z,1.40
2017-12-09T13:08:00.573Z,1.60
2017-12-09T13:10:27.283Z,1.40
2017-12-09T13:12:53.209Z,1.40
2017-12-09T13:15:19.177Z,1.20
2017-12-09T13:17:45.179Z,1.30
2017-12-09T13:20:11.149Z,1.30
2017-12-09T13:22:38.665Z,1.30
2017-12-09T13:25:04.605Z,1.30
2017-12-09T13:27:30.566Z,1.30
2017-12-09T13:29:56.570Z,1.30
2017-12-09T13:32:22.511Z,1.40
2017-12-09T13:34:48.478Z,1.20
2017-12-09T13:37:14.417Z,1.30
2017-12-09T13:39:40.381Z,1.30
2017-12-09T13:42:06.341Z,1.40
2017-12-09T13:44:32.313Z,1.30
2017-12-09T13:46:58.266Z,1.40
2017-12-09T13:49:24.246Z,1.40
2017-12-09T13:51:50.185Z,1.40
2017-12-09T13:54:16.153Z,1.30
2017-12-09T13:56:42.101Z,1.30
2017-12-09T13:59:08.071Z,1.40
2017-12-09T14:01:34.834Z,1.40
2017-12-09T14:04:00.794Z,1.40
2017-12-09T14:06:26.809Z,1.30
2017-12-09T14:08:52.782Z,1.40
2017-12-09T14:11:18.759Z,1.40
2017-12-09T14:13:44.772Z,1.40
2017-12-09T14:16:10.718Z,1.50
2017-12-09T14:18:36.686Z,1.40
2017-12-09T14:21:02.660Z,1.50
2017-12-09T14:23:28.618Z,1.50
2017-12-09T14:25:54.603Z,1.60
2017-12-09T14:28:20.557Z,1.50
2017-12-09T14:30:46.537Z,1.50
2017-12-09T14:33:12.488Z,1.60
2017-12-09T14:35:39.197Z,1.60
2017-12-09T14:38:05.194Z,1.60
2017-12-09T14:40:31.128Z,1.60
2017-12-09T14:42:57.066Z,1.60
2017-12-09T14:45:23.082Z,1.70
2017-12-09T14:47:49.785Z,1.70
2017-12-09T14:50:15.765Z,1.70
2017-12-09T14:52:41.701Z,1.70
2017-12-09T14:55:09.173Z,1.70
2017-12-09T14:57:35.893Z,1.70
2017-12-09T15:00:01.863Z,1.70
2017-12-09T15:02:28.733Z,1.70
2017-12-09T15:04:55.424Z,1.80
2017-12-09T15:07:21.388Z,1.80
2017-12-09T15:09:47.410Z,1.80
2017-12-09T15:12:13.361Z,1.70
2017-12-09T15:14:39.381Z,1.70
2017-12-09T15:17:05.329Z,1.70
2017-12-09T15:19:31.285Z,1.80
2017-12-09T15:21:57.285Z,1.80
2017-12-09T15:24:23.285Z,1.80
2017-12-09T15:26:49.292Z,1.70
2017-12-09T15:29:15.233Z,1.70
2017-12-09T15:31:41.946Z,1.80
2017-12-09T15:34:08.041Z,1.80
2017-12-09T15:36:33.991Z,1.70
2017-12-09T15:39:00.021Z,1.80
2017-12-09T15:41:26.021Z,1.70
2017-12-09T15:43:51.969Z,1.80
2017-12-09T15:46:18.697Z,1.80
2017-12-09T15:48:44.640Z,1.80
2017-12-09T15:51:10.617Z,1.80
2017-12-09T15:53:36.665Z,1.80
2017-12-09T15:56:02.629Z,1.90
2017-12-09T15:58:28.569Z,1.80
2017-12-09T16:00:54.536Z,1.80
2017-12-09T16:03:21.229Z,1.80
2017-12-09T16:05:47.273Z,1.80
2017-12-09T16:08:13.260Z,1.90
2017-12-09T16:10:40.222Z,1.90
2017-12-09T16:13:07.066Z,1.90
2017-12-09T16:15:33.004Z,1.80
2017-12-09T16:18:00.000Z,1.80
2017-12-09T16:20:25.981Z,1.90
2017-12-09T16:22:51.974Z,1.90
2017-12-09T16:25:18.010Z,1.80
2017-12-09T16:27:43.958Z,1.80
2017-12-09T16:30:09.960Z,1.90
2017-12-09T16:32:36.683Z,2.00
2017-12-09T16:35:02.634Z,2.00
2017-12-09T16:37:28.601Z,2.10
2017-12-09T16:39:54.610Z,2.10
2017-12-09T16:42:20.581Z,2.20
2017-12-09T16:44:46.526Z,2.20
2017-12-09T16:47:12.561Z,2.20
2017-12-09T16:49:38.548Z,2.30
2017-12-09T16:52:04.519Z,2.40
2017-12-09T16:54:30.531Z,2.00
2017-12-09T16:56:56.497Z,2.00
2017-12-09T16:59:22.438Z,2.00
2017-12-09T17:01:48.469Z,2.00
2017-12-09T17:04:14.443Z,2.00
2017-12-09T17:06:40.381Z,2.10
2017-12-09T17:09:06.360Z,2.00
2017-12-09T17:11:33.038Z,1.90
2017-12-09T17:13:59.013Z,1.90
2017-12-09T17:16:24.950Z,1.90
2017-12-09T17:18:50.945Z,2.00
2017-12-09T17:21:16.944Z,1.80
2017-12-09T17:23:43.629Z,1.90
2017-12-09T17:26:10.341Z,1.90
2017-12-09T17:28:36.305Z,1.90
2017-12-09T17:31:02.285Z,1.90
2017-12-09T17:33:28.226Z,1.90
2017-12-09T17:35:54.173Z,1.80
2017-12-09T17:38:20.138Z,1.80
2017-12-09T17:40:46.120Z,1.90
2017-12-09T17:43:12.112Z,1.90
2017-12-09T17:45:38.065Z,1.90
2017-12-09T17:48:04.782Z,1.90
2017-12-09T17:50:30.751Z,1.90
2017-12-09T17:52:57.489Z,1.90
2017-12-09T17:55:23.446Z,1.90
2017-12-09T17:57:50.165Z,2.00
2017-12-09T18:00:16.134Z,2.00
2017-12-09T18:02:42.854Z,1.90
2017-12-09T18:05:08.870Z,1.90
2017-12-09T18:07:34.801Z,2.00
2017-12-09T18:10:00.750Z,2.00
2017-12-09T18:12:26.726Z,2.00
2017-12-09T18:14:52.665Z,2.00
2017-12-09T18:17:19.381Z,2.00
2017-12-09T18:19:45.330Z,1.90
2017-12-09T18:22:11.338Z,1.90
2017-12-09T18:24:37.305Z,1.90
2017-12-09T18:27:03.253Z,1.90
2017-12-09T18:29:29.995Z,1.90
2017-12-09T18:31:55.986Z,1.90
2017-12-09T18:34:21.957Z,2.00
2017-12-09T18:36:47.945Z,1.90
2017-12-09T18:39:13.917Z,1.90
2017-12-09T18:41:39.893Z,1.80
2017-12-09T18:44:06.641Z,1.80
2017-12-09T18:46:32.593Z,1.80
2017-12-09T18:48:59.365Z,1.70
2017-12-09T18:51:25.358Z,1.70
2017-12-09T18:53:51.348Z,1.70
2017-12-09T18:56:17.329Z,1.60
2017-12-09T18:58:43.473Z,1.60
2017-12-09T19:01:09.541Z,1.60
2017-12-09T19:03:35.562Z,1.50
2017-12-09T19:06:02.278Z,1.40
2017-12-09T19:08:28.225Z,1.40
2017-12-09T19:10:54.205Z,1.50
2017-12-09T19:13:20.311Z,1.50
2017-12-09T19:15:46.274Z,1.60
2017-12-09T19:18:13.114Z,1.40
2017-12-09T19:20:39.826Z,1.40
2017-12-09T19:23:05.841Z,1.40
2017-12-09T19:25:31.778Z,1.40
2017-12-09T19:27:57.796Z,1.40
2017-12-09T19:30:23.857Z,1.40
2017-12-09T19:32:49.829Z,1.40
2017-12-09T19:35:15.769Z,1.50
2017-12-09T19:37:41.761Z,1.40
2017-12-09T19:40:07.775Z,1.40
2017-12-09T19:42:33.749Z,1.30
2017-12-09T19:44:59.700Z,1.30
2017-12-09T19:47:25.684Z,1.40
2017-12-09T19:49:51.648Z,1.30
2017-12-09T19:52:17.598Z,1.30
2017-12-09T19:54:43.591Z,1.30
2017-12-09T19:57:09.542Z,1.30
2017-12-09T19:59:35.506Z,1.30
2017-12-09T20:02:02.391Z,1.30
2017-12-09T20:04:28.369Z,1.30
2017-12-09T20:06:54.353Z,1.40
2017-12-09T20:09:20.325Z,1.30
2017-12-09T20:11:47.022Z,1.30
2017-12-09T20:14:13.086Z,1.30
2017-12-09T20:16:39.205Z,1.30
2017-12-09T20:19:05.172Z,1.30
2017-12-09T20:21:31.916Z,1.30
2017-12-09T20:23:58.645Z,1.40
2017-12-09T20:26:24.624Z,1.40
2017-12-09T20:28:51.525Z,1.30
2017-12-09T20:31:18.300Z,1.30
2017-12-09T20:33:44.275Z,1.30
2017-12-09T20:36:10.989Z,1.20
2017-12-09T20:38:36.937Z,1.20
2017-12-09T20:41:03.025Z,1.20
2017-12-09T20:43:28.956Z,1.30
2017-12-09T20:45:55.001Z,1.30
2017-12-09T20:48:20.942Z,1.30
2017-12-09T20:50:47.026Z,1.30
2017-12-09T20:53:13.069Z,1.30
2017-12-09T20:55:39.139Z,1.30
2017-12-09T20:58:05.194Z,1.30
2017-12-09T21:00:31.220Z,1.40
2017-12-09T21:02:57.184Z,1.40
2017-12-09T21:05:23.238Z,1.40
2017-12-09T21:07:49.221Z,1.50
2017-12-09T21:10:15.165Z,1.60
2017-12-09T21:12:41.109Z,1.70
2017-12-09T21:15:07.098Z,1.70
2017-12-09T21:17:33.045Z,1.70
2017-12-09T21:19:59.785Z,1.70
2017-12-09T21:22:25.737Z,1.60
2017-12-09T21:24:52.507Z,1.70
2017-12-09T21:27:18.476Z,1.70
2017-12-09T21:29:44.440Z,1.70
2017-12-09T21:32:10.412Z,1.80
2017-12-09T21:34:37.105Z,1.80
2017-12-09T21:37:03.062Z,1.80
2017-12-09T21:39:29.042Z,1.70
2017-12-09T21:41:55.029Z,1.80
2017-12-09T21:44:21.009Z,1.80
2017-12-09T21:46:46.951Z,1.80
2017-12-09T21:49:15.778Z,1.90
2017-12-09T21:51:42.570Z,1.80
2017-12-09T21:54:08.523Z,1.80
2017-12-09T21:56:35.322Z,1.70
2017-12-09T21:59:01.287Z,1.70
2017-12-09T22:01:27.277Z,1.70
2017-12-09T22:03:53.973Z,1.60
2017-12-09T22:06:19.934Z,1.60
2017-12-09T22:08:46.653Z,1.80
2017-12-09T22:11:12.625Z,1.70
2017-12-09T22:13:39.316Z,1.70
2017-12-09T22:16:05.509Z,1.70
2017-12-09T22:18:31.485Z,1.70
2017-12-09T22:20:57.526Z,1.70
2017-12-09T22:23:23.525Z,1.70
2017-12-09T22:25:50.202Z,1.70
2017-12-09T22:28:16.193Z,1.70
2017-12-09T22:30:42.150Z,1.70
2017-12-09T22:33:08.861Z,1.70
2017-12-09T22:35:35.549Z,1.60
2017-12-09T22:38:01.489Z,1.60
2017-12-09T22:40:28.254Z,1.50
2017-12-09T22:42:54.941Z,1.50
2017-12-09T22:45:20.877Z,1.50
2017-12-09T22:47:46.857Z,1.50
2017-12-09T22:50:12.814Z,1.50
2017-12-09T22:52:39.553Z,1.60
2017-12-09T22:55:06.270Z,1.60
2017-12-09T22:57:32.205Z,1.70
2017-12-09T22:59:58.169Z,1.60
2017-12-09T23:02:24.118Z,1.80
2017-12-09T23:04:50.897Z,1.70
2017-12-09T23:07:16.825Z,1.70
2017-12-09T23:09:42.754Z,1.70
2017-12-09T23:12:09.499Z,1.80
2017-12-09T23:14:36.189Z,1.80
2017-12-09T23:17:02.129Z,1.80
2017-12-09T23:19:28.110Z,1.80
2017-12-09T23:21:54.798Z,1.60
2017-12-09T23:24:20.750Z,1.60
2017-12-09T23:26:46.714Z,1.70
2017-12-09T23:29:12.686Z,1.80
2017-12-09T23:31:39.430Z,1.50
2017-12-09T23:34:06.128Z,1.50
2017-12-09T23:36:32.097Z,1.60
2017-12-09T23:38:58.048Z,1.50
2017-12-09T23:41:24.802Z,1.60
2017-12-09T23:43:50.781Z,1.60
2017-12-09T23:46:16.734Z,1.60
2017-12-09T23:48:42.726Z,1.60
2017-12-09T23:51:09.474Z,1.60
2017-12-09T23:53:36.185Z,1.50
2017-12-09T23:56:02.174Z,1.50
2017-12-09T23:58:28.141Z,1.50
